sensor_id;sensor_type;location;lat;lon;timestamp;temperature;humidity
31809;DHT22;18379;48.208;-1.518;2022-12-29T00:01:10;10.90;99.90
31809;DHT22;18379;48.208;-1.518;2022-12-29T00:06:11;10.80;99.90
31809;DHT22;18379;48.208;-1.518;2022-12-29T00:11:21;10.80;99.90
31809;DHT22;18379;48.208;-1.518;2022-12-29T00:16:22;10.80;99.90
31809;DHT22;18379;48.208;-1.518;2022-12-29T00:21:23;10.80;99.90
31809;DHT22;18379;48.208;-1.518;2022-12-29T00:26:43;10.70;99.90
31809;DHT22;18379;48.208;-1.518;2022-12-29T00:32:04;10.80;99.90
31809;DHT22;18379;48.208;-1.518;2022-12-29T00:37:23;10.70;99.90
31809;DHT22;18379;48.208;-1.518;2022-12-29T00:42:44;10.80;99.90
31809;DHT22;18379;48.208;-1.518;2022-12-29T00:48:03;10.90;99.90
31809;DHT22;18379;48.208;-1.518;2022-12-29T00:53:04;10.80;99.90
31809;DHT22;18379;48.208;-1.518;2022-12-29T00:58:05;10.80;99.90
31809;DHT22;18379;48.208;-1.518;2022-12-29T01:03:06;10.80;99.90
31809;DHT22;18379;48.208;-1.518;2022-12-29T01:08:06;10.80;99.90
31809;DHT22;18379;48.208;-1.518;2022-12-29T01:13:10;10.80;99.90
31809;DHT22;18379;48.208;-1.518;2022-12-29T01:18:10;10.80;99.90
31809;DHT22;18379;48.208;-1.518;2022-12-29T01:23:12;10.70;99.90
31809;DHT22;18379;48.208;-1.518;2022-12-29T01:28:13;10.80;99.90
31809;DHT22;18379;48.208;-1.518;2022-12-29T01:33:14;10.70;99.90
31809;DHT22;18379;48.208;-1.518;2022-12-29T01:38:15;10.70;99.90
31809;DHT22;18379;48.208;-1.518;2022-12-29T01:43:16;10.60;99.90
31809;DHT22;18379;48.208;-1.518;2022-12-29T01:48:17;10.60;99.90
31809;DHT22;18379;48.208;-1.518;2022-12-29T01:53:30;10.60;99.90
31809;DHT22;18379;48.208;-1.518;2022-12-29T01:58:37;10.50;99.90
31809;DHT22;18379;48.208;-1.518;2022-12-29T02:03:40;10.50;99.90
31809;DHT22;18379;48.208;-1.518;2022-12-29T02:08:42;10.50;99.90
31809;DHT22;18379;48.208;-1.518;2022-12-29T02:13:43;10.50;99.90
31809;DHT22;18379;48.208;-1.518;2022-12-29T02:44:55;10.20;99.90
31809;DHT22;18379;48.208;-1.518;2022-12-29T02:54:58;10.30;99.90
31809;DHT22;18379;48.208;-1.518;2022-12-29T03:10:17;10.30;99.90
31809;DHT22;18379;48.208;-1.518;2022-12-29T03:15:33;10.30;99.90
31809;DHT22;18379;48.208;-1.518;2022-12-29T03:26:47;10.20;99.90
31809;DHT22;18379;48.208;-1.518;2022-12-29T03:31:51;10.20;99.90
31809;DHT22;18379;48.208;-1.518;2022-12-29T03:37:00;10.20;99.90
31809;DHT22;18379;48.208;-1.518;2022-12-29T03:42:05;10.20;99.90
31809;DHT22;18379;48.208;-1.518;2022-12-29T03:47:07;10.20;99.90
31809;DHT22;18379;48.208;-1.518;2022-12-29T03:52:08;10.20;99.90
31809;DHT22;18379;48.208;-1.518;2022-12-29T03:57:10;10.20;99.90
31809;DHT22;18379;48.208;-1.518;2022-12-29T04:02:11;10.20;99.90
31809;DHT22;18379;48.208;-1.518;2022-12-29T04:07:12;10.20;99.90
31809;DHT22;18379;48.208;-1.518;2022-12-29T04:12:13;10.10;99.90
31809;DHT22;18379;48.208;-1.518;2022-12-29T04:17:15;10.00;99.90
31809;DHT22;18379;48.208;-1.518;2022-12-29T04:22:15;10.00;99.90
31809;DHT22;18379;48.208;-1.518;2022-12-29T04:27:17;9.90;99.90
31809;DHT22;18379;48.208;-1.518;2022-12-29T04:32:17;9.90;99.90
31809;DHT22;18379;48.208;-1.518;2022-12-29T04:37:18;9.90;99.90
31809;DHT22;18379;48.208;-1.518;2022-12-29T04:42:19;9.90;99.90
31809;DHT22;18379;48.208;-1.518;2022-12-29T04:47:20;9.80;99.90
31809;DHT22;18379;48.208;-1.518;2022-12-29T04:52:20;9.90;99.90
31809;DHT22;18379;48.208;-1.518;2022-12-29T04:57:21;9.80;99.90
31809;DHT22;18379;48.208;-1.518;2022-12-29T05:02:22;9.70;99.90
31809;DHT22;18379;48.208;-1.518;2022-12-29T05:07:23;9.70;99.90
31809;DHT22;18379;48.208;-1.518;2022-12-29T05:12:23;9.70;99.90
31809;DHT22;18379;48.208;-1.518;2022-12-29T05:17:26;9.60;99.90
31809;DHT22;18379;48.208;-1.518;2022-12-29T05:22:27;9.70;99.90
31809;DHT22;18379;48.208;-1.518;2022-12-29T05:27:28;9.70;99.90
31809;DHT22;18379;48.208;-1.518;2022-12-29T05:32:29;9.60;99.90
31809;DHT22;18379;48.208;-1.518;2022-12-29T05:37:29;9.50;99.90
31809;DHT22;18379;48.208;-1.518;2022-12-29T05:42:30;9.50;99.90
31809;DHT22;18379;48.208;-1.518;2022-12-29T05:47:31;9.40;99.90
31809;DHT22;18379;48.208;-1.518;2022-12-29T05:52:32;9.40;99.90
31809;DHT22;18379;48.208;-1.518;2022-12-29T05:57:32;9.30;99.90
31809;DHT22;18379;48.208;-1.518;2022-12-29T06:02:33;9.30;99.90
31809;DHT22;18379;48.208;-1.518;2022-12-29T06:07:34;9.20;99.90
31809;DHT22;18379;48.208;-1.518;2022-12-29T06:12:35;9.20;99.90
31809;DHT22;18379;48.208;-1.518;2022-12-29T06:17:35;9.10;99.90
31809;DHT22;18379;48.208;-1.518;2022-12-29T06:22:37;9.10;99.90
31809;DHT22;18379;48.208;-1.518;2022-12-29T06:27:37;9.00;99.90
31809;DHT22;18379;48.208;-1.518;2022-12-29T06:32:38;9.00;99.90
31809;DHT22;18379;48.208;-1.518;2022-12-29T06:37:39;9.00;99.90
31809;DHT22;18379;48.208;-1.518;2022-12-29T06:42:40;8.90;99.90
31809;DHT22;18379;48.208;-1.518;2022-12-29T06:47:41;8.90;99.90
31809;DHT22;18379;48.208;-1.518;2022-12-29T06:52:41;8.90;99.90
31809;DHT22;18379;48.208;-1.518;2022-12-29T06:57:42;8.90;99.90
31809;DHT22;18379;48.208;-1.518;2022-12-29T07:02:43;8.90;99.90
31809;DHT22;18379;48.208;-1.518;2022-12-29T07:07:44;8.80;99.90
31809;DHT22;18379;48.208;-1.518;2022-12-29T07:12:44;8.80;99.90
31809;DHT22;18379;48.208;-1.518;2022-12-29T07:17:45;8.80;99.90
31809;DHT22;18379;48.208;-1.518;2022-12-29T07:22:47;8.90;99.90
31809;DHT22;18379;48.208;-1.518;2022-12-29T07:27:48;8.90;99.90
31809;DHT22;18379;48.208;-1.518;2022-12-29T07:32:49;8.80;99.90
31809;DHT22;18379;48.208;-1.518;2022-12-29T07:37:50;8.80;99.90
31809;DHT22;18379;48.208;-1.518;2022-12-29T07:42:50;8.80;99.90
31809;DHT22;18379;48.208;-1.518;2022-12-29T07:47:51;8.70;99.90
31809;DHT22;18379;48.208;-1.518;2022-12-29T07:52:52;8.70;99.90
31809;DHT22;18379;48.208;-1.518;2022-12-29T07:57:55;8.70;99.90
31809;DHT22;18379;48.208;-1.518;2022-12-29T08:02:56;8.70;99.90
31809;DHT22;18379;48.208;-1.518;2022-12-29T08:07:57;8.70;99.90
31809;DHT22;18379;48.208;-1.518;2022-12-29T08:12:57;8.70;99.90
31809;DHT22;18379;48.208;-1.518;2022-12-29T08:17:58;8.70;99.90
31809;DHT22;18379;48.208;-1.518;2022-12-29T08:22:59;8.70;99.90
31809;DHT22;18379;48.208;-1.518;2022-12-29T08:28:00;8.70;99.90
31809;DHT22;18379;48.208;-1.518;2022-12-29T08:33:00;8.60;99.90
31809;DHT22;18379;48.208;-1.518;2022-12-29T08:38:01;8.60;99.90
31809;DHT22;18379;48.208;-1.518;2022-12-29T08:43:02;8.60;99.90
31809;DHT22;18379;48.208;-1.518;2022-12-29T08:48:04;8.60;99.90
31809;DHT22;18379;48.208;-1.518;2022-12-29T08:53:04;8.60;99.90
31809;DHT22;18379;48.208;-1.518;2022-12-29T08:58:05;8.60;99.90
31809;DHT22;18379;48.208;-1.518;2022-12-29T09:03:06;8.60;99.90
31809;DHT22;18379;48.208;-1.518;2022-12-29T09:08:07;8.60;99.90
31809;DHT22;18379;48.208;-1.518;2022-12-29T09:13:08;8.50;99.90
31809;DHT22;18379;48.208;-1.518;2022-12-29T09:18:09;8.50;99.90
31809;DHT22;18379;48.208;-1.518;2022-12-29T09:23:10;8.50;99.90
31809;DHT22;18379;48.208;-1.518;2022-12-29T09:28:11;8.60;99.90
31809;DHT22;18379;48.208;-1.518;2022-12-29T09:33:12;8.70;99.90
31809;DHT22;18379;48.208;-1.518;2022-12-29T09:38:13;8.80;99.90
31809;DHT22;18379;48.208;-1.518;2022-12-29T09:48:41;9.10;99.90
31809;DHT22;18379;48.208;-1.518;2022-12-29T09:54:19;9.30;99.90
31809;DHT22;18379;48.208;-1.518;2022-12-29T09:59:26;9.50;99.90
31809;DHT22;18379;48.208;-1.518;2022-12-29T10:04:31;9.60;99.90
31809;DHT22;18379;48.208;-1.518;2022-12-29T10:15:04;9.90;99.90
31809;DHT22;18379;48.208;-1.518;2022-12-29T10:20:44;10.00;99.90
31809;DHT22;18379;48.208;-1.518;2022-12-29T10:25:49;10.00;99.90
31809;DHT22;18379;48.208;-1.518;2022-12-29T10:30:51;10.10;99.90
31809;DHT22;18379;48.208;-1.518;2022-12-29T10:35:54;10.20;99.90
31809;DHT22;18379;48.208;-1.518;2022-12-29T10:41:08;10.30;99.90
31809;DHT22;18379;48.208;-1.518;2022-12-29T10:46:27;10.40;99.90
31809;DHT22;18379;48.208;-1.518;2022-12-29T10:51:34;10.50;99.90
31809;DHT22;18379;48.208;-1.518;2022-12-29T10:57:21;10.70;99.90
31809;DHT22;18379;48.208;-1.518;2022-12-29T11:07:50;11.00;99.90
31809;DHT22;18379;48.208;-1.518;2022-12-29T11:12:59;10.90;99.90
31809;DHT22;18379;48.208;-1.518;2022-12-29T11:18:00;10.90;99.90
31809;DHT22;18379;48.208;-1.518;2022-12-29T11:23:05;10.90;99.90
31809;DHT22;18379;48.208;-1.518;2022-12-29T11:28:20;11.00;99.90
31809;DHT22;18379;48.208;-1.518;2022-12-29T11:33:21;11.30;99.90
31809;DHT22;18379;48.208;-1.518;2022-12-29T11:38:26;11.20;99.90
31809;DHT22;18379;48.208;-1.518;2022-12-29T11:43:33;11.20;99.90
31809;DHT22;18379;48.208;-1.518;2022-12-29T11:48:40;11.40;99.90
31809;DHT22;18379;48.208;-1.518;2022-12-29T11:53:50;11.50;99.90
31809;DHT22;18379;48.208;-1.518;2022-12-29T11:58:52;11.50;99.90
31809;DHT22;18379;48.208;-1.518;2022-12-29T12:04:24;11.60;99.90
31809;DHT22;18379;48.208;-1.518;2022-12-29T12:09:29;11.40;99.90
31809;DHT22;18379;48.208;-1.518;2022-12-29T12:14:54;11.50;99.90
31809;DHT22;18379;48.208;-1.518;2022-12-29T12:20:00;11.70;99.90
31809;DHT22;18379;48.208;-1.518;2022-12-29T12:30:19;11.90;99.90
31809;DHT22;18379;48.208;-1.518;2022-12-29T12:35:42;11.90;99.90
31809;DHT22;18379;48.208;-1.518;2022-12-29T12:41:05;12.20;99.90
31809;DHT22;18379;48.208;-1.518;2022-12-29T12:57:22;11.80;99.90
31809;DHT22;18379;48.208;-1.518;2022-12-29T13:18:50;11.80;99.90
31809;DHT22;18379;48.208;-1.518;2022-12-29T13:29:24;11.70;99.90
31809;DHT22;18379;48.208;-1.518;2022-12-29T13:40:02;11.40;99.90
31809;DHT22;18379;48.208;-1.518;2022-12-29T13:45:07;11.30;99.90
31809;DHT22;18379;48.208;-1.518;2022-12-29T13:50:24;11.10;99.90
31809;DHT22;18379;48.208;-1.518;2022-12-29T14:01:08;11.30;99.90
31809;DHT22;18379;48.208;-1.518;2022-12-29T14:06:32;11.30;99.90
31809;DHT22;18379;48.208;-1.518;2022-12-29T14:11:39;11.90;99.90
31809;DHT22;18379;48.208;-1.518;2022-12-29T14:16:41;12.00;99.90
31809;DHT22;18379;48.208;-1.518;2022-12-29T14:22:02;12.10;99.90
31809;DHT22;18379;48.208;-1.518;2022-12-29T14:37:36;11.30;99.90
31809;DHT22;18379;48.208;-1.518;2022-12-29T14:42:39;11.10;99.90
31809;DHT22;18379;48.208;-1.518;2022-12-29T14:47:44;11.00;99.90
31809;DHT22;18379;48.208;-1.518;2022-12-29T14:53:03;10.80;99.90
31809;DHT22;18379;48.208;-1.518;2022-12-29T14:58:12;10.70;99.90
31809;DHT22;18379;48.208;-1.518;2022-12-29T15:03:38;10.70;99.90
31809;DHT22;18379;48.208;-1.518;2022-12-29T15:08:54;10.50;99.90
31809;DHT22;18379;48.208;-1.518;2022-12-29T15:15:20;10.50;99.90
31809;DHT22;18379;48.208;-1.518;2022-12-29T15:19:59;10.40;99.90
31809;DHT22;18379;48.208;-1.518;2022-12-29T15:25:00;10.50;99.90
31809;DHT22;18379;48.208;-1.518;2022-12-29T15:30:03;10.60;99.90
31809;DHT22;18379;48.208;-1.518;2022-12-29T15:35:36;10.50;99.90
31809;DHT22;18379;48.208;-1.518;2022-12-29T15:40:37;10.50;99.90
31809;DHT22;18379;48.208;-1.518;2022-12-29T15:45:38;10.40;99.90
31809;DHT22;18379;48.208;-1.518;2022-12-29T15:50:40;10.40;99.90
31809;DHT22;18379;48.208;-1.518;2022-12-29T15:55:44;10.30;99.90
31809;DHT22;18379;48.208;-1.518;2022-12-29T16:00:50;10.20;99.90
31809;DHT22;18379;48.208;-1.518;2022-12-29T16:05:58;10.20;99.90
31809;DHT22;18379;48.208;-1.518;2022-12-29T16:21:33;9.90;99.90
31809;DHT22;18379;48.208;-1.518;2022-12-29T16:26:34;9.80;99.90
31809;DHT22;18379;48.208;-1.518;2022-12-29T16:31:52;9.60;99.90
31809;DHT22;18379;48.208;-1.518;2022-12-29T16:37:01;9.50;99.90
31809;DHT22;18379;48.208;-1.518;2022-12-29T16:42:55;9.40;99.90
31809;DHT22;18379;48.208;-1.518;2022-12-29T16:53:07;9.30;99.90
31809;DHT22;18379;48.208;-1.518;2022-12-29T16:58:21;9.20;99.90
31809;DHT22;18379;48.208;-1.518;2022-12-29T17:03:24;9.10;99.90
31809;DHT22;18379;48.208;-1.518;2022-12-29T17:08:45;9.00;99.90
31809;DHT22;18379;48.208;-1.518;2022-12-29T17:13:55;8.90;99.90
31809;DHT22;18379;48.208;-1.518;2022-12-29T17:19:19;8.90;99.90
31809;DHT22;18379;48.208;-1.518;2022-12-29T17:24:29;8.90;99.90
31809;DHT22;18379;48.208;-1.518;2022-12-29T17:29:31;8.80;99.90
31809;DHT22;18379;48.208;-1.518;2022-12-29T17:34:33;8.70;99.90
31809;DHT22;18379;48.208;-1.518;2022-12-29T17:39:44;8.70;99.90
31809;DHT22;18379;48.208;-1.518;2022-12-29T17:45:22;8.70;99.90
31809;DHT22;18379;48.208;-1.518;2022-12-29T17:50:26;8.60;99.90
31809;DHT22;18379;48.208;-1.518;2022-12-29T17:55:32;8.60;99.90
31809;DHT22;18379;48.208;-1.518;2022-12-29T18:00:37;8.60;99.90
31809;DHT22;18379;48.208;-1.518;2022-12-29T18:05:51;8.60;99.90
31809;DHT22;18379;48.208;-1.518;2022-12-29T18:10:53;8.60;99.90
31809;DHT22;18379;48.208;-1.518;2022-12-29T18:15:55;8.60;99.90
31809;DHT22;18379;48.208;-1.518;2022-12-29T18:20:58;8.70;99.90
31809;DHT22;18379;48.208;-1.518;2022-12-29T18:26:21;8.70;99.90
31809;DHT22;18379;48.208;-1.518;2022-12-29T18:32:37;8.60;99.90
31809;DHT22;18379;48.208;-1.518;2022-12-29T18:37:38;8.50;99.90
31809;DHT22;18379;48.208;-1.518;2022-12-29T18:42:38;8.50;99.90
31809;DHT22;18379;48.208;-1.518;2022-12-29T18:48:06;8.40;99.90
31809;DHT22;18379;48.208;-1.518;2022-12-29T18:54:00;8.40;99.90
31809;DHT22;18379;48.208;-1.518;2022-12-29T18:59:12;8.30;99.90
31809;DHT22;18379;48.208;-1.518;2022-12-29T19:04:13;8.30;99.90
31809;DHT22;18379;48.208;-1.518;2022-12-29T19:09:15;8.20;99.90
31809;DHT22;18379;48.208;-1.518;2022-12-29T19:14:28;8.20;99.90
31809;DHT22;18379;48.208;-1.518;2022-12-29T19:19:28;8.10;99.90
31809;DHT22;18379;48.208;-1.518;2022-12-29T19:24:29;8.10;99.90
31809;DHT22;18379;48.208;-1.518;2022-12-29T19:29:33;8.00;99.90
31809;DHT22;18379;48.208;-1.518;2022-12-29T19:34:34;8.00;99.90
31809;DHT22;18379;48.208;-1.518;2022-12-29T19:39:35;8.00;99.90
31809;DHT22;18379;48.208;-1.518;2022-12-29T19:44:36;7.90;99.90
31809;DHT22;18379;48.208;-1.518;2022-12-29T19:49:37;7.90;99.90
31809;DHT22;18379;48.208;-1.518;2022-12-29T19:54:38;7.80;99.90
31809;DHT22;18379;48.208;-1.518;2022-12-29T19:59:39;7.80;99.90
31809;DHT22;18379;48.208;-1.518;2022-12-29T20:04:40;7.70;99.90
31809;DHT22;18379;48.208;-1.518;2022-12-29T20:09:41;7.70;99.90
31809;DHT22;18379;48.208;-1.518;2022-12-29T20:14:43;7.70;99.90
31809;DHT22;18379;48.208;-1.518;2022-12-29T20:19:44;7.70;99.90
31809;DHT22;18379;48.208;-1.518;2022-12-29T20:24:52;7.70;99.90
31809;DHT22;18379;48.208;-1.518;2022-12-29T20:29:54;7.60;99.90
31809;DHT22;18379;48.208;-1.518;2022-12-29T20:34:55;7.50;99.90
31809;DHT22;18379;48.208;-1.518;2022-12-29T20:39:55;7.50;99.90
31809;DHT22;18379;48.208;-1.518;2022-12-29T20:44:56;7.40;99.90
31809;DHT22;18379;48.208;-1.518;2022-12-29T20:49:57;7.30;99.90
31809;DHT22;18379;48.208;-1.518;2022-12-29T20:54:58;7.20;99.90
31809;DHT22;18379;48.208;-1.518;2022-12-29T20:59:58;7.10;99.90
31809;DHT22;18379;48.208;-1.518;2022-12-29T21:04:59;7.00;99.90
31809;DHT22;18379;48.208;-1.518;2022-12-29T21:10:00;6.90;99.90
31809;DHT22;18379;48.208;-1.518;2022-12-29T21:15:01;6.80;99.90
31809;DHT22;18379;48.208;-1.518;2022-12-29T21:20:02;6.80;99.90
31809;DHT22;18379;48.208;-1.518;2022-12-29T21:25:03;6.80;99.90
31809;DHT22;18379;48.208;-1.518;2022-12-29T21:30:04;6.70;99.90
31809;DHT22;18379;48.208;-1.518;2022-12-29T21:35:06;6.60;99.90
31809;DHT22;18379;48.208;-1.518;2022-12-29T21:40:16;6.50;99.90
31809;DHT22;18379;48.208;-1.518;2022-12-29T21:45:17;6.40;99.90
31809;DHT22;18379;48.208;-1.518;2022-12-29T21:50:25;6.30;99.90
31809;DHT22;18379;48.208;-1.518;2022-12-29T21:55:26;6.20;99.90
31809;DHT22;18379;48.208;-1.518;2022-12-29T22:00:26;6.20;99.90
31809;DHT22;18379;48.208;-1.518;2022-12-29T22:05:46;6.10;99.90
31809;DHT22;18379;48.208;-1.518;2022-12-29T22:11:07;6.00;99.90
31809;DHT22;18379;48.208;-1.518;2022-12-29T22:16:27;5.90;99.90
31809;DHT22;18379;48.208;-1.518;2022-12-29T22:21:27;5.80;99.90
31809;DHT22;18379;48.208;-1.518;2022-12-29T22:26:29;5.80;99.90
31809;DHT22;18379;48.208;-1.518;2022-12-29T22:31:30;5.90;99.90
31809;DHT22;18379;48.208;-1.518;2022-12-29T22:36:32;5.90;99.90
31809;DHT22;18379;48.208;-1.518;2022-12-29T22:41:33;5.90;99.90
31809;DHT22;18379;48.208;-1.518;2022-12-29T22:46:34;5.90;99.90
31809;DHT22;18379;48.208;-1.518;2022-12-29T22:51:34;5.90;99.90
31809;DHT22;18379;48.208;-1.518;2022-12-29T22:56:35;6.00;99.90
31809;DHT22;18379;48.208;-1.518;2022-12-29T23:01:41;6.00;99.90
31809;DHT22;18379;48.208;-1.518;2022-12-29T23:06:42;6.10;99.90
31809;DHT22;18379;48.208;-1.518;2022-12-29T23:11:44;6.20;99.90
31809;DHT22;18379;48.208;-1.518;2022-12-29T23:16:45;6.20;99.90
31809;DHT22;18379;48.208;-1.518;2022-12-29T23:21:46;6.20;99.90
31809;DHT22;18379;48.208;-1.518;2022-12-29T23:26:47;6.20;99.90
31809;DHT22;18379;48.208;-1.518;2022-12-29T23:31:49;6.10;99.90
31809;DHT22;18379;48.208;-1.518;2022-12-29T23:36:50;6.10;99.90
31809;DHT22;18379;48.208;-1.518;2022-12-29T23:41:51;6.10;99.90
31809;DHT22;18379;48.208;-1.518;2022-12-29T23:46:52;6.10;99.90
31809;DHT22;18379;48.208;-1.518;2022-12-29T23:51:53;6.10;99.90
31809;DHT22;18379;48.208;-1.518;2022-12-29T23:56:54;6.10;99.90
